Carlos Beguerie, Argentina
Current Conditions -  °F | °C
As of 11:00 PM on Saturday 22 Nov 2014 (Local Time) from SAEZ Reporting Station
Clear Clear  
Wind Chill: 66°   Ceiling: Unl
Heat Index: 66°   Visibility: 6mi
Dew Point: 52°   Wind: 6mph
Humidity: 60%   Direction: 340°NNW
Pressure: 29.88"   Gusts: NA
Location:  35.49°S, 59.1°W
Report Text: SAEZ 230200Z 34005KT CAVOK 19/11 Q1012
Loading
Personal Weather Stations






























Interactive Weather Map New forecast layout! Learn more

10-Day Weather Forecast

Advertisements
Track Severe Weather on mobile